Time;durP1;ratioP1;P1;durP2;ratioP2;P2;SDS_P1;SDS_P2;PMS_P1;PMS_P2;Temp;Humidity;BMP_temperature;BMP_pressure;BME280_temperature;BME280_humidity;BME280_pressure;Samples;Min_cycle;Max_cycle;Signal;HPM_P1;HPM_P2
2024/01/07 00:00:16;;;;;;;8.40;1.55;;;;;;;3.50;100.00;96191.38;29392;226;64000;-67
2024/01/07 00:00:47;;;;;;;0.60;0.60;;;;;;;3.55;100.00;96188.72;29395;206;63009;-54
2024/01/07 00:01:18;;;;;;;0.60;0.60;;;;;;;3.55;100.00;96191.41;29395;210;63011;-54
2024/01/07 00:01:50;;;;;;;0.60;0.60;;;;;;;3.54;100.00;96187.09;29395;223;63009;-62
2024/01/07 00:02:22;;;;;;;0.60;0.60;;;;;;;3.51;100.00;96195.69;29394;197;64008;-54
2024/01/07 00:02:54;;;;;;;0.60;0.60;;;;;;;3.47;100.00;96189.22;29395;212;63009;-63
2024/01/07 00:03:25;;;;;;;0.60;0.60;;;;;;;3.46;100.00;96193.81;29395;253;63005;-55
2024/01/07 00:03:56;;;;;;;0.60;0.60;;;;;;;3.45;100.00;96194.88;29395;233;63009;-54
2024/01/07 00:04:28;;;;;;;0.70;0.70;;;;;;;3.45;100.00;96192.22;29395;240;63005;-64
2024/01/07 00:04:59;;;;;;;0.60;0.60;;;;;;;3.47;100.00;96189.22;29395;202;63009;-55
2024/01/07 00:05:30;;;;;;;0.60;0.60;;;;;;;3.48;100.00;96193.53;29395;240;63005;-55
2024/01/07 00:06:01;;;;;;;0.60;0.60;;;;;;;3.50;100.00;96184.16;29395;254;63009;-70
2024/01/07 00:06:32;;;;;;;0.60;0.60;;;;;;;3.56;100.00;96201.06;29395;225;63005;-70
2024/01/07 00:07:05;;;;;;;0.70;0.70;;;;;;;3.55;100.00;96180.69;29394;199;64013;-65
2024/01/07 00:07:37;;;;;;;0.60;0.60;;;;;;;3.55;100.00;96186.03;29395;204;63004;-54
2024/01/07 00:08:08;;;;;;;0.60;0.60;;;;;;;3.54;100.00;96189.78;29395;387;63009;-55
2024/01/07 00:08:39;;;;;;;0.60;0.60;;;;;;;3.55;100.00;96188.72;29395;202;63004;-54
2024/01/07 00:09:14;;;;;;;0.60;0.60;;;;;;;3.55;100.00;96188.72;29395;257;63009;-54
2024/01/07 00:09:47;;;;;;;0.60;0.60;;;;;;;3.56;100.00;96187.66;29395;201;63004;-64
2024/01/07 00:10:18;;;;;;;0.60;0.60;;;;;;;3.57;100.00;96189.25;29395;198;63009;-63
2024/01/07 00:10:50;;;;;;;0.60;0.60;;;;;;;3.55;100.00;96186.03;29394;211;64009;-53
2024/01/07 00:11:22;;;;;;;0.70;0.70;;;;;;;3.58;100.00;96188.19;29395;232;63009;-66
2024/01/07 00:11:53;;;;;;;0.60;0.60;;;;;;;3.57;100.00;96190.06;29395;263;63005;-63
2024/01/07 00:12:25;;;;;;;0.60;0.60;;;;;;;3.57;100.00;96191.94;29395;207;63009;-64
2024/01/07 00:12:57;;;;;;;0.60;0.60;;;;;;;3.55;100.00;96180.69;29395;231;63005;-65
2024/01/07 00:13:29;;;;;;;0.60;0.60;;;;;;;3.53;100.00;96188.19;29395;262;63009;-66
2024/01/07 00:14:00;;;;;;;0.50;0.50;;;;;;;3.51;100.00;96187.63;29394;202;64009;-70
2024/01/07 00:14:32;;;;;;;0.60;0.60;;;;;;;3.50;100.00;96186.03;29395;203;63009;-55
2024/01/07 00:15:04;;;;;;;0.60;0.60;;;;;;;3.51;100.00;96201.03;29395;205;63004;-54
2024/01/07 00:15:36;;;;;;;0.93;0.93;;;;;;;3.53;100.00;96188.97;29395;228;63009;-68
2024/01/07 00:16:09;;;;;;;0.85;0.85;;;;;;;3.57;100.00;96189.25;29395;257;63004;-54
2024/01/07 00:16:41;;;;;;;0.60;0.60;;;;;;;3.57;100.00;96187.38;29395;233;63009;-54
2024/01/07 00:17:13;;;;;;;0.70;0.70;;;;;;;3.54;100.00;96195.16;29395;336;63009;-56
2024/01/07 00:17:45;;;;;;;0.60;0.60;;;;;;;3.53;100.00;96198.91;29395;214;63004;-63
2024/01/07 00:18:17;;;;;;;0.60;0.60;;;;;;;3.49;100.00;96195.13;29394;210;64009;-53
2024/01/07 00:18:49;;;;;;;0.60;0.60;;;;;;;3.47;100.00;96198.09;29395;211;63009;-62
2024/01/07 00:19:21;;;;;;;0.60;0.60;;;;;;;3.47;100.00;96197.28;29395;206;63010;-69
2024/01/07 00:19:53;;;;;;;0.60;0.60;;;;;;;3.49;100.00;96197.81;29395;202;63009;-55
2024/01/07 00:20:25;;;;;;;0.60;0.60;;;;;;;3.52;100.00;96203.47;29395;214;63005;-64
2024/01/07 00:20:57;;;;;;;0.60;0.60;;;;;;;3.51;100.00;96193.81;29395;217;63009;-54
2024/01/07 00:21:29;;;;;;;0.60;0.60;;;;;;;3.51;100.00;96195.69;29395;226;63005;-64
2024/01/07 00:22:01;;;;;;;0.60;0.60;;;;;;;3.49;100.00;96203.19;29395;251;63009;-54
2024/01/07 00:22:32;;;;;;;0.60;0.60;;;;;;;3.49;100.00;96197.81;29395;248;63004;-65
2024/01/07 00:23:04;;;;;;;0.60;0.60;;;;;;;3.55;100.00;96197.56;29394;234;64013;-68
2024/01/07 00:23:35;;;;;;;0.60;0.60;;;;;;;3.58;100.00;96196.25;29395;237;63010;-64
2024/01/07 00:24:07;;;;;;;0.60;0.60;;;;;;;3.55;100.00;96197.56;29395;272;63009;-53
2024/01/07 00:24:38;;;;;;;0.60;0.60;;;;;;;3.54;100.00;96197.84;29394;238;64008;-53
2024/01/07 00:25:09;;;;;;;0.60;0.60;;;;;;;3.52;100.00;96194.62;29395;221;63008;-55
2024/01/07 00:25:41;;;;;;;1.65;1.65;;;;;;;3.51;100.00;96201.03;29395;234;63005;-65
2024/01/07 00:26:13;;;;;;;0.60;0.60;;;;;;;3.50;100.00;96196.75;29395;203;63009;-54
2024/01/07 00:26:44;;;;;;;0.60;0.60;;;;;;;3.51;100.00;96195.69;29395;206;63005;-64
2024/01/07 00:27:15;;;;;;;0.60;0.60;;;;;;;3.50;100.00;96186.03;29395;211;63009;-55
2024/01/07 00:27:51;;;;;;;0.60;0.60;;;;;;;3.50;100.00;96191.38;29394;251;64009;-67
2024/01/07 00:28:22;;;;;;;1.02;1.02;;;;;;;3.50;100.00;96199.44;29395;198;63009;-68
2024/01/07 00:28:53;;;;;;;0.60;0.60;;;;;;;3.53;100.00;96201.59;29395;221;63005;-64
2024/01/07 00:29:26;;;;;;;1.65;1.55;;;;;;;3.51;100.00;96195.69;29395;317;63009;-66
2024/01/07 00:29:57;;;;;;;0.70;0.70;;;;;;;3.55;100.00;96199.44;29395;205;63008;-63
2024/01/07 00:30:29;;;;;;;0.60;0.60;;;;;;;3.55;100.00;96196.78;29395;241;63018;-67
2024/01/07 00:31:00;;;;;;;0.60;0.60;;;;;;;3.57;100.00;96194.62;29395;223;63004;-54
2024/01/07 00:31:32;;;;;;;0.60;0.60;;;;;;;3.56;100.00;96190.34;29395;288;63015;-68
2024/01/07 00:32:04;;;;;;;2.80;2.60;;;;;;;3.59;100.00;96195.16;29395;213;63004;-53
2024/01/07 00:32:35;;;;;;;0.60;0.60;;;;;;;3.58;100.00;96191.69;29395;234;63008;-67
2024/01/07 00:33:07;;;;;;;1.12;1.12;;;;;;;3.61;100.00;96187.66;29394;213;64009;-65
2024/01/07 00:33:39;;;;;;;0.70;0.70;;;;;;;3.61;100.00;96187.66;29395;207;63009;-54
2024/01/07 00:34:10;;;;;;;0.60;0.60;;;;;;;3.58;100.00;96190.87;29395;202;63005;-66
2024/01/07 00:34:41;;;;;;;0.60;0.60;;;;;;;3.54;100.00;96185.22;29395;241;63009;-52
2024/01/07 00:35:13;;;;;;;0.60;0.60;;;;;;;3.56;100.00;96190.34;29394;215;64009;-53
2024/01/07 00:35:45;;;;;;;1.58;1.58;;;;;;;3.58;100.00;96191.69;29395;220;63009;-54
2024/01/07 00:36:16;;;;;;;0.60;0.60;;;;;;;3.59;100.00;96187.94;29395;222;63005;-63
2024/01/07 00:36:47;;;;;;;0.60;0.60;;;;;;;3.59;100.00;96195.97;29395;222;63009;-67
2024/01/07 00:37:19;;;;;;;0.60;0.60;;;;;;;3.57;100.00;96190.06;29394;212;64009;-53
2024/01/07 00:37:51;;;;;;;0.60;0.60;;;;;;;3.53;100.00;96190.87;29395;277;63009;-69
2024/01/07 00:38:22;;;;;;;0.70;0.70;;;;;;;3.51;100.00;96195.69;29395;231;63004;-66
2024/01/07 00:38:54;;;;;;;0.60;0.60;;;;;;;3.56;100.00;96187.66;29395;202;63009;-69
2024/01/07 00:39:26;;;;;;;0.60;0.60;;;;;;;3.58;100.00;96188.19;29395;369;63004;-65
2024/01/07 00:39:58;;;;;;;0.50;0.50;;;;;;;3.57;100.00;96189.25;29395;327;63008;-64
2024/01/07 00:40:32;;;;;;;0.68;0.68;;;;;;;3.53;100.00;96188.97;29395;225;63004;-67
2024/01/07 00:41:04;;;;;;;0.60;0.60;;;;;;;3.57;100.00;96186.59;29395;236;63009;-67
2024/01/07 00:41:36;;;;;;;0.60;0.60;;;;;;;3.56;100.00;96187.66;29394;197;64009;-53
2024/01/07 00:42:10;;;;;;;0.60;0.60;;;;;;;3.53;100.00;96183.63;29395;209;63014;-65
2024/01/07 00:42:41;;;;;;;0.60;0.60;;;;;;;3.50;100.00;96194.06;29394;198;64009;-65
2024/01/07 00:43:13;;;;;;;0.60;0.60;;;;;;;3.46;100.00;96191.13;29394;197;64013;-64
2024/01/07 00:43:44;;;;;;;0.60;0.60;;;;;;;3.44;100.00;96190.59;29395;210;63005;-64
2024/01/07 00:44:16;;;;;;;0.60;0.60;;;;;;;3.44;100.00;96184.44;29395;218;63009;-64
2024/01/07 00:44:47;;;;;;;0.60;0.60;;;;;;;3.44;100.00;96189.78;29395;198;63004;-65
2024/01/07 00:45:19;;;;;;;0.60;0.60;;;;;;;3.43;100.00;96193.53;29394;220;64013;-65
2024/01/07 00:45:54;;;;;;;0.60;0.60;;;;;;;3.43;100.00;96188.97;29395;196;63004;-64
2024/01/07 00:46:25;;;;;;;0.60;0.60;;;;;;;3.44;100.00;96189.78;29395;205;63008;-67
2024/01/07 00:46:58;;;;;;;0.50;0.50;;;;;;;3.44;100.00;96195.16;29395;324;63004;-67
2024/01/07 00:47:29;;;;;;;0.60;0.60;;;;;;;3.46;100.00;96193.00;29395;239;63008;-68
2024/01/07 00:48:00;;;;;;;0.60;0.60;;;;;;;3.51;100.00;96198.37;29394;196;64004;-68
2024/01/07 00:48:31;;;;;;;0.75;0.75;;;;;;;3.50;100.00;96199.44;29395;235;63020;-54
2024/01/07 00:49:03;;;;;;;1.12;1.12;;;;;;;3.49;100.00;96193.25;29395;238;63014;-53
2024/01/07 00:49:34;;;;;;;0.60;0.60;;;;;;;3.47;100.00;96190.03;29394;323;64013;-69
2024/01/07 00:50:06;;;;;;;0.60;0.60;;;;;;;3.48;100.00;96197.00;29395;199;63005;-62
2024/01/07 00:50:37;;;;;;;0.60;0.60;;;;;;;3.50;100.00;96194.06;29395;252;63009;-69
2024/01/07 00:51:09;;;;;;;0.60;0.60;;;;;;;3.48;100.00;96191.66;29395;227;63005;-54
2024/01/07 00:51:40;;;;;;;0.60;0.60;;;;;;;3.46;100.00;96190.34;29395;282;63009;-63
2024/01/07 00:52:11;;;;;;;0.60;0.60;;;;;;;3.47;100.00;96194.59;29395;235;63004;-67
2024/01/07 00:52:44;;;;;;;0.60;0.60;;;;;;;3.48;100.00;96190.84;29395;368;63009;-64
2024/01/07 00:53:15;;;;;;;0.60;0.60;;;;;;;3.46;100.00;96195.69;29395;205;63017;-63
2024/01/07 00:53:46;;;;;;;0.57;0.57;;;;;;;3.43;100.00;96193.53;29395;212;63009;-64
2024/01/07 00:54:18;;;;;;;0.60;0.60;;;;;;;3.40;100.00;96196.75;29395;218;63011;-65
2024/01/07 00:54:52;;;;;;;0.60;0.60;;;;;;;3.38;100.00;96191.66;29394;213;64014;-64
2024/01/07 00:55:23;;;;;;;0.60;0.60;;;;;;;3.36;100.00;96197.28;29394;208;64009;-72
2024/01/07 00:55:54;;;;;;;0.68;0.68;;;;;;;3.39;100.00;96197.81;29395;264;63009;-53
2024/01/07 00:56:28;;;;;;;0.60;0.60;;;;;;;3.40;100.00;96194.06;29395;224;63005;-63
2024/01/07 00:57:03;;;;;;;0.60;0.60;;;;;;;3.45;100.00;96194.88;29395;307;63009;-69
2024/01/07 00:57:34;;;;;;;0.60;0.60;;;;;;;3.48;100.00;96197.00;29395;236;63005;-66
2024/01/07 00:58:05;;;;;;;0.70;0.70;;;;;;;3.49;100.00;96197.81;29395;341;63005;-64
2024/01/07 00:58:37;;;;;;;0.60;0.60;;;;;;;3.51;100.00;96195.69;29395;235;63005;-65
2024/01/07 00:59:08;;;;;;;0.60;0.60;;;;;;;3.53;100.00;96198.91;29395;346;63009;-68
2024/01/07 00:59:39;;;;;;;0.60;0.60;;;;;;;3.52;100.00;96191.94;29395;221;63004;-64
2024/01/07 01:00:12;;;;;;;0.60;0.60;;;;;;;3.53;100.00;96193.53;29395;231;63009;-54
2024/01/07 01:00:45;;;;;;;0.68;0.68;;;;;;;3.56;100.00;96190.34;29394;231;64009;-67
2024/01/07 01:01:16;;;;;;;1.65;1.58;;;;;;;3.57;100.00;96190.06;29395;265;63009;-71
2024/01/07 01:01:47;;;;;;;0.55;0.55;;;;;;;3.56;100.00;96198.37;29395;351;63004;-54
2024/01/07 01:02:21;;;;;;;0.60;0.60;;;;;;;3.52;100.00;96195.41;29395;206;63008;-63
2024/01/07 01:02:52;;;;;;;0.60;0.60;;;;;;;3.50;100.00;96194.88;29395;235;63012;-69
2024/01/07 01:03:24;;;;;;;0.60;0.60;;;;;;;3.45;100.00;96202.94;29395;197;63009;-64
2024/01/07 01:03:55;;;;;;;0.60;0.60;;;;;;;3.44;100.00;96192.47;29395;238;63015;-66
2024/01/07 01:04:26;;;;;;;0.60;0.60;;;;;;;3.40;100.00;96202.09;29395;212;63009;-54
2024/01/07 01:04:57;;;;;;;3.40;1.85;;;;;;;3.43;100.00;96199.72;29395;284;63005;-53
2024/01/07 01:05:29;;;;;;;0.57;0.57;;;;;;;3.44;100.00;96200.53;29395;204;63009;-56
2024/01/07 01:06:00;;;;;;;0.60;0.60;;;;;;;3.46;100.00;96203.75;29394;216;64009;-53
2024/01/07 01:06:31;;;;;;;0.60;0.60;;;;;;;3.43;100.00;96194.34;29395;288;63009;-65
2024/01/07 01:07:03;;;;;;;0.93;0.93;;;;;;;3.46;100.00;96203.75;29395;234;63004;-67
2024/01/07 01:07:34;;;;;;;0.73;0.73;;;;;;;3.46;100.00;96206.44;29395;324;63009;-54
2024/01/07 01:08:06;;;;;;;0.60;0.60;;;;;;;3.50;100.00;96204.81;29395;230;63004;-54
2024/01/07 01:08:37;;;;;;;0.88;0.88;;;;;;;3.54;100.00;96203.19;29395;233;63009;-68
2024/01/07 01:09:12;;;;;;;0.60;0.60;;;;;;;3.56;100.00;96198.37;29395;232;63004;-67
2024/01/07 01:09:43;;;;;;;0.90;0.90;;;;;;;3.55;100.00;96202.94;29395;222;63008;-63
2024/01/07 01:10:16;;;;;;;0.60;0.60;;;;;;;3.56;100.00;96206.44;29395;228;63005;-67
2024/01/07 01:10:48;;;;;;;0.60;0.60;;;;;;;3.55;100.00;96191.41;29395;249;63009;-64
2024/01/07 01:11:25;;;;;;;0.60;0.60;;;;;;;3.55;100.00;96204.81;29394;224;64009;-67
2024/01/07 01:11:57;;;;;;;0.60;0.60;;;;;;;3.50;100.00;96204.81;29395;233;63009;-54
2024/01/07 01:12:28;;;;;;;0.60;0.60;;;;;;;3.46;100.00;96206.44;29395;202;63005;-66
2024/01/07 01:13:00;;;;;;;5.55;5.22;;;;;;;3.45;100.00;96202.12;29395;222;63016;-66
2024/01/07 01:13:32;;;;;;;0.60;0.60;;;;;;;3.40;100.00;96199.44;29395;297;63005;-54
2024/01/07 01:14:03;;;;;;;0.60;0.60;;;;;;;3.44;100.00;96205.87;29395;212;63009;-69
2024/01/07 01:14:34;;;;;;;1.08;1.08;;;;;;;3.43;100.00;96201.59;29395;296;63004;-66
2024/01/07 01:15:09;;;;;;;0.60;0.60;;;;;;;3.47;100.00;96206.13;29395;225;63009;-69
2024/01/07 01:15:41;;;;;;;0.60;0.60;;;;;;;3.47;100.00;96205.31;29394;209;64009;-63
2024/01/07 01:16:12;;;;;;;0.60;0.60;;;;;;;3.48;100.00;96206.94;29395;252;63009;-67
2024/01/07 01:16:43;;;;;;;0.60;0.60;;;;;;;3.47;100.00;96205.31;29395;257;63004;-66
2024/01/07 01:17:15;;;;;;;0.85;0.85;;;;;;;3.46;100.00;96209.09;29395;284;63008;-67
2024/01/07 01:17:46;;;;;;;0.60;0.60;;;;;;;3.47;100.00;96210.69;29395;214;63005;-54
2024/01/07 01:18:18;;;;;;;0.60;0.60;;;;;;;3.47;100.00;96216.06;29394;197;64014;-66
2024/01/07 01:18:50;;;;;;;0.70;0.70;;;;;;;3.49;100.00;96213.91;29395;218;63005;-67
2024/01/07 01:19:24;;;;;;;0.70;0.70;;;;;;;3.45;100.00;96208.31;29395;196;63009;-63
2024/01/07 01:19:55;;;;;;;0.60;0.60;;;;;;;3.43;100.00;96204.25;29395;252;63005;-53
2024/01/07 01:20:28;;;;;;;0.65;0.65;;;;;;;3.39;100.00;96208.53;29395;266;63009;-54
2024/01/07 01:21:04;;;;;;;0.60;0.60;;;;;;;3.43;100.00;96215.00;29394;233;64009;-68
2024/01/07 01:21:35;;;;;;;1.75;1.62;;;;;;;3.47;100.00;96206.13;29395;216;63009;-59
2024/01/07 01:22:10;;;;;;;1.90;1.17;;;;;;;3.58;100.00;96217.69;29395;334;63004;-57
2024/01/07 01:22:41;;;;;;;0.88;0.88;;;;;;;3.60;100.00;96207.50;29395;211;63014;-63
2024/01/07 01:23:12;;;;;;;0.60;0.60;;;;;;;3.57;100.00;96210.72;29395;222;63004;-54
2024/01/07 01:23:47;;;;;;;0.68;0.68;;;;;;;3.52;100.00;96210.72;29395;205;63009;-66
2024/01/07 01:24:19;;;;;;;0.50;0.50;;;;;;;3.49;100.00;96214.72;29395;230;63004;-65
2024/01/07 01:24:51;;;;;;;0.60;0.60;;;;;;;3.48;100.00;96220.34;29395;320;63008;-54
2024/01/07 01:25:22;;;;;;;0.60;0.60;;;;;;;3.49;100.00;96214.72;29394;344;64009;-64
2024/01/07 01:25:54;;;;;;;0.93;0.93;;;;;;;3.47;100.00;96216.84;29395;232;63009;-66
2024/01/07 01:26:25;;;;;;;0.70;0.70;;;;;;;3.46;100.00;96219.84;29395;279;63005;-64
2024/01/07 01:26:57;;;;;;;0.80;0.80;;;;;;;3.43;100.00;96215.00;29395;319;63009;-54
2024/01/07 01:27:28;;;;;;;0.70;0.70;;;;;;;3.41;100.00;96219.81;29395;226;63005;-62
2024/01/07 01:28:02;;;;;;;0.60;0.60;;;;;;;3.40;100.00;96215.53;29395;264;63009;-67
2024/01/07 01:28:34;;;;;;;0.60;0.60;;;;;;;3.40;100.00;96220.87;29395;346;63005;-54
2024/01/07 01:29:05;;;;;;;2.15;2.05;;;;;;;3.37;100.00;96217.66;29395;232;63009;-53
2024/01/07 01:29:36;;;;;;;0.60;0.60;;;;;;;3.36;100.00;96215.25;29395;210;63004;-54
2024/01/07 01:30:08;;;;;;;0.60;0.60;;;;;;;3.33;100.00;96216.56;29395;202;63009;-54
2024/01/07 01:30:43;;;;;;;0.60;0.60;;;;;;;3.34;100.00;96218.19;29394;237;64009;-71
2024/01/07 01:31:15;;;;;;;0.60;0.60;;;;;;;3.33;100.00;96219.25;29395;385;63009;-54
2024/01/07 01:31:47;;;;;;;0.60;0.60;;;;;;;3.34;100.00;96222.75;29395;227;63004;-64
2024/01/07 01:32:18;;;;;;;0.68;0.68;;;;;;;3.37;100.00;96219.53;29394;256;64013;-64
2024/01/07 01:32:50;;;;;;;0.60;0.60;;;;;;;3.40;100.00;96220.87;29395;203;63005;-65
2024/01/07 01:33:21;;;;;;;0.60;0.60;;;;;;;3.39;100.00;96213.91;29395;363;63009;-55
2024/01/07 01:33:52;;;;;;;0.60;0.60;;;;;;;3.35;100.00;96211.75;29395;204;63005;-68
2024/01/07 01:34:24;;;;;;;0.60;0.60;;;;;;;3.31;100.00;96215.22;29394;216;64013;-54
2024/01/07 01:34:56;;;;;;;0.70;0.70;;;;;;;3.31;100.00;96218.69;29395;301;63005;-55
2024/01/07 01:35:29;;;;;;;0.60;0.60;;;;;;;3.30;100.00;96211.72;29395;267;63009;-54
2024/01/07 01:36:05;;;;;;;1.95;1.40;;;;;;;3.34;100.00;96223.53;29394;239;64009;-69
2024/01/07 01:36:37;;;;;;;0.60;0.60;;;;;;;3.34;100.00;96218.19;29395;197;63009;-56
2024/01/07 01:37:09;;;;;;;0.60;0.60;;;;;;;3.37;100.00;96220.34;29394;199;64009;-64
2024/01/07 01:37:41;;;;;;;0.85;0.85;;;;;;;3.42;100.00;96218.75;29395;310;63016;-55
2024/01/07 01:38:12;;;;;;;0.60;0.60;;;;;;;3.41;100.00;96219.81;29395;224;63004;-55
2024/01/07 01:38:45;;;;;;;0.60;0.60;;;;;;;3.36;100.00;96216.03;29395;204;63009;-66
2024/01/07 01:39:19;;;;;;;0.60;0.60;;;;;;;3.32;100.00;96220.31;29395;227;63004;-55
2024/01/07 01:39:51;;;;;;;1.65;1.65;;;;;;;3.32;100.00;96214.16;29395;228;63008;-66
2024/01/07 01:40:22;;;;;;;0.60;0.60;;;;;;;3.31;100.00;96218.69;29395;227;63005;-68
2024/01/07 01:40:55;;;;;;;0.73;0.73;;;;;;;3.32;100.00;96219.50;29394;313;64014;-55
2024/01/07 01:41:26;;;;;;;0.60;0.60;;;;;;;3.32;100.00;96214.97;29395;234;63005;-69
2024/01/07 01:41:58;;;;;;;0.60;0.60;;;;;;;3.32;100.00;96224.88;29395;211;63009;-69
2024/01/07 01:42:29;;;;;;;0.60;0.60;;;;;;;3.33;100.00;96219.25;29395;276;63005;-63
2024/01/07 01:43:00;;;;;;;0.65;0.65;;;;;;;3.31;100.00;96218.69;29395;288;63009;-68
2024/01/07 01:43:33;;;;;;;0.60;0.60;;;;;;;3.29;100.00;96218.16;29395;297;63005;-67
2024/01/07 01:44:04;;;;;;;0.60;0.60;;;;;;;3.28;100.00;96216.53;29394;240;64013;-70
2024/01/07 01:44:36;;;;;;;0.60;0.60;;;;;;;3.27;100.00;96214.13;29395;212;63004;-66
2024/01/07 01:45:08;;;;;;;0.60;0.60;;;;;;;3.29;100.00;96218.16;29395;203;63009;-55
2024/01/07 01:45:40;;;;;;;0.60;0.60;;;;;;;3.29;100.00;96220.84;29395;214;63004;-71
2024/01/07 01:46:13;;;;;;;0.60;0.60;;;;;;;3.28;100.00;96219.22;29394;218;64013;-70
2024/01/07 01:46:47;;;;;;;0.60;0.60;;;;;;;3.27;100.00;96222.97;29395;239;63010;-54
2024/01/07 01:47:19;;;;;;;0.60;0.60;;;;;;;3.28;100.00;96219.22;29395;239;63008;-67
2024/01/07 01:47:51;;;;;;;0.52;0.52;;;;;;;3.25;100.00;96219.75;29395;288;63011;-67
2024/01/07 01:48:24;;;;;;;0.60;0.60;;;;;;;3.24;100.00;96218.13;29395;228;63009;-54
2024/01/07 01:48:57;;;;;;;0.60;0.60;;;;;;;3.23;100.00;96211.16;29395;245;63010;-62
2024/01/07 01:49:30;;;;;;;0.60;0.60;;;;;;;3.22;100.00;96219.47;29395;219;63009;-54
2024/01/07 01:50:03;;;;;;;0.60;0.60;;;;;;;3.23;100.00;96219.19;29395;227;63005;-64
2024/01/07 01:50:35;;;;;;;0.60;0.60;;;;;;;3.22;100.00;96214.91;29395;209;63009;-54
2024/01/07 01:51:06;;;;;;;2.28;1.33;;;;;;;3.25;100.00;96218.94;29394;267;64009;-66
2024/01/07 01:51:40;;;;;;;0.60;0.60;;;;;;;3.29;100.00;96218.16;29395;197;63009;-68
2024/01/07 01:52:13;;;;;;;0.60;0.60;;;;;;;3.28;100.00;96221.91;29395;225;63004;-63
2024/01/07 01:52:46;;;;;;;0.70;0.70;;;;;;;3.34;100.00;96223.53;29395;244;63009;-73
2024/01/07 01:53:20;;;;;;;0.60;0.60;;;;;;;3.32;100.00;96214.16;29395;219;63004;-54
2024/01/07 01:53:52;;;;;;;0.60;0.60;;;;;;;3.34;100.00;96218.19;29395;252;63008;-65
2024/01/07 01:54:24;;;;;;;1.10;1.10;;;;;;;3.37;100.00;96217.66;29395;231;63004;-67
2024/01/07 01:54:56;;;;;;;1.02;1.02;;;;;;;3.40;100.00;96218.19;29395;293;63008;-54
2024/01/07 01:55:28;;;;;;;0.60;0.60;;;;;;;3.42;100.00;96213.37;29395;206;63001;-64
2024/01/07 01:56:04;;;;;;;0.60;0.60;;;;;;;3.46;100.00;96225.19;29395;213;63009;-55
2024/01/07 01:56:36;;;;;;;0.88;0.88;;;;;;;3.45;100.00;96219.03;29394;236;64009;-54
2024/01/07 01:57:13;;;;;;;0.70;0.70;;;;;;;3.45;100.00;96215.53;29395;239;63009;-55
2024/01/07 01:57:48;;;;;;;0.60;0.60;;;;;;;3.44;100.00;96213.94;29395;218;63005;-63
2024/01/07 01:58:20;;;;;;;0.93;0.93;;;;;;;3.42;100.00;96218.75;29395;214;63009;-54
2024/01/07 01:58:52;;;;;;;0.60;0.60;;;;;;;3.36;100.00;96220.59;29395;205;63004;-53
2024/01/07 01:59:28;;;;;;;0.60;0.60;;;;;;;3.34;100.00;96220.06;29395;222;63009;-72
2024/01/07 02:00:05;;;;;;;0.60;0.60;;;;;;;3.34;100.00;96218.19;29395;411;63004;-64
2024/01/07 02:00:36;;;;;;;1.10;1.10;;;;;;;3.33;100.00;96216.56;29395;227;63009;-63
2024/01/07 02:01:08;;;;;;;0.60;0.60;;;;;;;3.34;100.00;96214.69;29395;256;63004;-66
2024/01/07 02:01:40;;;;;;;0.60;0.60;;;;;;;3.38;100.00;96218.47;29394;205;64013;-67
2024/01/07 02:02:13;;;;;;;0.60;0.60;;;;;;;3.34;100.00;96218.19;29395;206;63005;-54
2024/01/07 02:02:45;;;;;;;0.70;0.70;;;;;;;3.40;100.00;96223.56;29395;282;63009;-54
2024/01/07 02:03:17;;;;;;;0.60;0.60;;;;;;;3.39;100.00;96225.44;29395;210;63005;-55
2024/01/07 02:03:49;;;;;;;0.90;0.90;;;;;;;3.35;100.00;96222.47;29395;352;63009;-70
2024/01/07 02:04:21;;;;;;;0.70;0.70;;;;;;;3.35;100.00;96227.84;29395;241;63005;-69
2024/01/07 02:04:52;;;;;;;1.80;1.73;;;;;;;3.33;100.00;96221.13;29395;222;63015;-54
2024/01/07 02:05:24;;;;;;;0.73;0.73;;;;;;;3.28;100.00;96213.87;29395;322;63005;-54
2024/01/07 02:05:58;;;;;;;0.60;0.60;;;;;;;3.25;100.00;96225.09;29394;197;64013;-64
2024/01/07 02:06:30;;;;;;;0.60;0.60;;;;;;;3.23;100.00;96215.72;29395;210;63009;-65
2024/01/07 02:07:02;;;;;;;0.70;0.70;;;;;;;3.26;100.00;96216.00;29395;202;63009;-70
2024/01/07 02:07:34;;;;;;;0.60;0.60;;;;;;;3.28;100.00;96218.41;29395;199;63004;-67
2024/01/07 02:08:07;;;;;;;2.10;2.00;;;;;;;3.29;100.00;96215.47;29395;319;63013;-54
2024/01/07 02:08:43;;;;;;;0.60;0.60;;;;;;;3.30;100.00;96217.09;29394;202;64008;-65
2024/01/07 02:09:14;;;;;;;0.60;0.60;;;;;;;3.26;100.00;96221.37;29395;232;63008;-54
2024/01/07 02:09:46;;;;;;;0.60;0.60;;;;;;;3.23;100.00;96221.88;29395;239;63005;-54
2024/01/07 02:10:18;;;;;;;0.70;0.70;;;;;;;3.21;100.00;96224.03;29395;254;63009;-65
2024/01/07 02:10:54;;;;;;;0.60;0.60;;;;;;;3.17;100.00;96222.13;29395;197;63005;-63
2024/01/07 02:11:25;;;;;;;0.70;0.70;;;;;;;3.18;100.00;96216.50;29395;203;63009;-67
2024/01/07 02:12:05;;;;;;;0.60;0.60;;;;;;;3.24;100.00;96222.69;29394;262;64009;-54
2024/01/07 02:12:37;;;;;;;0.65;0.65;;;;;;;3.25;100.00;96219.75;29395;229;63009;-53
2024/01/07 02:14:17;;;;;;;0.92;0.89;;;;;;;3.18;100.00;96219.19;88174;202;64004;-66
2024/01/07 02:14:49;;;;;;;0.82;0.82;;;;;;;3.20;100.00;96217.03;29394;214;64009;-64
2024/01/07 02:15:20;;;;;;;0.60;0.60;;;;;;;3.20;100.00;96221.59;29394;226;64004;-64
2024/01/07 02:15:52;;;;;;;0.60;0.60;;;;;;;3.18;100.00;96221.88;29394;220;64013;-54
2024/01/07 02:16:24;;;;;;;0.60;0.60;;;;;;;3.15;100.00;96214.34;29395;239;63004;-65
2024/01/07 02:16:56;;;;;;;0.60;0.60;;;;;;;3.13;100.00;96219.16;29395;259;63009;-64
2024/01/07 02:17:27;;;;;;;0.60;0.60;;;;;;;3.10;100.00;96217.03;29395;206;63007;-67
2024/01/07 02:17:59;;;;;;;0.60;0.60;;;;;;;3.10;100.00;96221.56;29394;206;64013;-66
2024/01/07 02:18:30;;;;;;;0.60;0.60;;;;;;;3.09;100.00;96218.09;29395;264;63018;-63
2024/01/07 02:19:02;;;;;;;0.70;0.70;;;;;;;3.09;100.00;96215.41;29395;363;63009;-66
2024/01/07 02:19:33;;;;;;;0.95;0.95;;;;;;;3.12;100.00;96219.44;29395;200;63005;-65
2024/01/07 02:20:06;;;;;;;0.60;0.60;;;;;;;3.13;100.00;96219.16;29395;197;63024;-54
2024/01/07 02:20:39;;;;;;;0.60;0.60;;;;;;;3.13;100.00;96215.66;29395;216;63005;-65
2024/01/07 02:21:11;;;;;;;0.60;0.60;;;;;;;3.12;100.00;96214.09;29395;255;63009;-68
2024/01/07 02:21:42;;;;;;;0.60;0.60;;;;;;;3.12;100.00;96214.88;29395;225;63005;-54
2024/01/07 02:22:14;;;;;;;0.60;0.60;;;;;;;3.11;100.00;96215.16;29394;218;64013;-54
2024/01/07 02:22:45;;;;;;;0.60;0.60;;;;;;;3.09;100.00;96218.09;29394;229;64009;-65
2024/01/07 02:23:16;;;;;;;0.60;0.60;;;;;;;3.08;100.00;96221.03;29395;203;63009;-65
2024/01/07 02:23:51;;;;;;;0.60;0.60;;;;;;;3.06;100.00;96218.63;29395;291;63004;-66
2024/01/07 02:24:22;;;;;;;0.60;0.60;;;;;;;3.03;100.00;96211.91;29395;220;63009;-54
2024/01/07 02:24:54;;;;;;;0.60;0.60;;;;;;;3.08;100.00;96215.66;29395;218;63004;-54
2024/01/07 02:25:25;;;;;;;0.60;0.60;;;;;;;3.11;100.00;96215.97;29395;240;63017;-71
2024/01/07 02:25:57;;;;;;;0.60;0.60;;;;;;;3.15;100.00;96225.06;29395;206;63016;-63
2024/01/07 02:26:28;;;;;;;0.60;0.60;;;;;;;3.16;100.00;96221.31;29395;332;63009;-54
2024/01/07 02:27:02;;;;;;;0.60;0.60;;;;;;;3.14;100.00;96218.09;29395;209;63005;-64
2024/01/07 02:27:33;;;;;;;0.60;0.60;;;;;;;3.14;100.00;96223.44;29394;216;64014;-63
2024/01/07 02:28:08;;;;;;;0.60;0.60;;;;;;;3.12;100.00;96220.22;29395;252;63005;-63
2024/01/07 02:28:41;;;;;;;0.60;0.60;;;;;;;3.12;100.00;96220.22;29395;199;63009;-65
2024/01/07 02:29:12;;;;;;;0.60;0.60;;;;;;;3.12;100.00;96220.22;29395;287;63005;-56
2024/01/07 02:29:44;;;;;;;0.60;0.60;;;;;;;3.10;100.00;96222.38;29395;209;63009;-54
2024/01/07 02:30:15;;;;;;;0.60;0.60;;;;;;;3.09;100.00;96220.78;29395;236;63005;-62
2024/01/07 02:30:50;;;;;;;0.60;0.60;;;;;;;3.08;100.00;96221.84;29395;233;63009;-64
2024/01/07 02:31:21;;;;;;;0.60;0.60;;;;;;;3.05;100.00;96219.69;29395;216;63004;-54
2024/01/07 02:31:53;;;;;;;0.60;0.60;;;;;;;3.06;100.00;96220.50;29394;220;64013;-55
2024/01/07 02:32:25;;;;;;;0.60;0.60;;;;;;;3.07;100.00;96219.41;29395;277;63004;-63
2024/01/07 02:32:56;;;;;;;0.60;0.60;;;;;;;3.06;100.00;96221.28;29395;256;63008;-63
2024/01/07 02:33:28;;;;;;;0.60;0.60;;;;;;;3.07;100.00;96222.91;29395;204;63004;-65
2024/01/07 02:33:59;;;;;;;0.60;0.60;;;;;;;3.07;100.00;96217.53;29395;211;63026;-55